Time;durP1;ratioP1;P1;durP2;ratioP2;P2;SDS_P1;SDS_P2;PMS_P1;PMS_P2;Temp;Humidity;BMP_temperature;BMP_pressure;BME280_temperature;BME280_humidity;BME280_pressure;Samples;Min_cycle;Max_cycle;Signal;HPM_P1;HPM_P2
2022/01/17 00:01:46;;;;;;;12.93;8.83;;;7.30;99.90;;;;;;5095740;28;20179;-74
2022/01/17 00:04:14;;;;;;;11.70;7.90;;;7.30;99.90;;;;;;5092644;28;20223;-71
2022/01/17 00:06:43;;;;;;;10.47;7.50;;;7.20;99.90;;;;;;5096886;28;20183;-68
2022/01/17 00:09:10;;;;;;;10.50;7.53;;;7.20;99.90;;;;;;5090314;28;20290;-71
2022/01/17 00:11:41;;;;;;;10.30;7.57;;;7.20;99.90;;;;;;5094828;28;20167;-74
2022/01/17 00:14:12;;;;;;;9.90;7.70;;;7.20;99.90;;;;;;5093160;28;20168;-73
2022/01/17 00:16:48;;;;;;;9.47;7.17;;;7.20;99.90;;;;;;5096443;28;20188;-74
2022/01/17 00:21:48;;;;;;;10.57;7.50;;;7.20;99.90;;;;;;5092945;28;20240;-72
2022/01/17 00:24:18;;;;;;;10.30;7.67;;;7.20;99.90;;;;;;5091482;28;20184;-74
2022/01/17 00:26:46;;;;;;;13.00;8.80;;;7.10;99.90;;;;;;5084966;28;20203;-71
2022/01/17 00:29:12;;;;;;;10.60;7.83;;;7.10;99.90;;;;;;5092304;28;20236;-68
2022/01/17 00:31:40;;;;;;;12.03;8.13;;;7.10;99.90;;;;;;5089983;28;20196;-70
2022/01/17 00:34:06;;;;;;;9.20;7.17;;;7.10;99.90;;;;;;5090116;28;20172;-70
2022/01/17 00:36:31;;;;;;;10.40;7.47;;;7.10;99.90;;;;;;5094724;28;20210;-70
2022/01/17 00:38:59;;;;;;;10.40;7.23;;;7.10;99.90;;;;;;5101020;28;20206;-70
2022/01/17 00:41:25;;;;;;;9.23;7.10;;;7.10;99.90;;;;;;5100460;28;20176;-69
2022/01/17 00:43:50;;;;;;;10.37;7.63;;;7.10;99.90;;;;;;5103300;27;20195;-71
2022/01/17 00:46:16;;;;;;;10.57;7.20;;;7.10;99.90;;;;;;5096453;28;20191;-69
2022/01/17 00:48:42;;;;;;;9.17;6.97;;;7.10;99.90;;;;;;5102859;28;20207;-70
2022/01/17 00:51:07;;;;;;;9.13;7.07;;;7.20;99.90;;;;;;5101265;28;20429;-69
2022/01/17 00:53:36;;;;;;;9.80;7.40;;;7.20;99.90;;;;;;5093617;28;20180;-71
2022/01/17 00:56:06;;;;;;;8.73;6.60;;;7.20;99.90;;;;;;5101300;28;20224;-70
2022/01/17 00:58:31;;;;;;;10.20;7.20;;;7.20;99.90;;;;;;5095455;28;20203;-69
2022/01/17 01:00:59;;;;;;;9.67;7.03;;;7.20;99.90;;;;;;5095815;28;20227;-70
2022/01/17 01:03:25;;;;;;;9.03;6.87;;;7.20;99.90;;;;;;5096394;28;20188;-70
2022/01/17 01:05:53;;;;;;;11.07;7.40;;;7.20;99.90;;;;;;5094554;28;20190;-70
2022/01/17 01:08:19;;;;;;;9.03;6.33;;;7.20;99.90;;;;;;5097030;28;20257;-70
2022/01/17 01:10:44;;;;;;;9.17;6.50;;;7.20;99.90;;;;;;5107743;28;20172;-69
2022/01/17 01:13:10;;;;;;;10.67;7.40;;;7.20;99.90;;;;;;5095716;28;20168;-71
2022/01/17 01:19:06;;;;;;;10.50;7.60;;;7.20;99.90;;;;;;5097016;28;20168;-71
2022/01/17 01:28:55;;;;;;;11.00;8.03;;;7.00;99.90;;;;;;5093780;28;20199;-70
2022/01/17 01:31:38;;;;;;;9.93;7.53;;;6.90;99.90;;;;;;5090342;28;20176;-68
2022/01/17 01:34:07;;;;;;;11.00;7.50;;;6.90;99.90;;;;;;5096646;28;20226;-71
2022/01/17 01:36:35;;;;;;;9.03;6.77;;;6.90;99.90;;;;;;5092282;28;20180;-71
2022/01/17 01:39:04;;;;;;;9.10;7.10;;;6.80;99.90;;;;;;5097323;28;20336;-69
2022/01/17 01:41:33;;;;;;;10.43;7.33;;;6.80;99.90;;;;;;5095782;28;20187;-71
2022/01/17 01:44:03;;;;;;;9.43;6.80;;;6.80;99.90;;;;;;5102314;28;20203;-70
2022/01/17 01:46:33;;;;;;;9.80;7.00;;;6.80;99.90;;;;;;5095009;28;20210;-71
2022/01/17 01:48:58;;;;;;;11.53;7.30;;;6.80;99.90;;;;;;5095686;28;20410;-69
2022/01/17 01:51:26;;;;;;;12.07;7.87;;;6.90;99.90;;;;;;5092952;28;20231;-71
2022/01/17 01:53:52;;;;;;;10.37;7.43;;;6.90;99.90;;;;;;5094513;28;20241;-70
2022/01/17 01:56:20;;;;;;;11.73;7.53;;;6.90;99.90;;;;;;5091784;28;20176;-71
2022/01/17 01:58:46;;;;;;;10.57;7.77;;;6.90;99.90;;;;;;5093918;28;20252;-69
2022/01/17 02:01:14;;;;;;;10.83;8.10;;;6.90;99.90;;;;;;5095230;28;20180;-71
2022/01/17 02:03:45;;;;;;;10.90;8.07;;;6.90;99.90;;;;;;5094870;28;20203;-70
2022/01/17 02:06:12;;;;;;;14.37;9.40;;;6.90;99.90;;;;;;5094102;28;20208;-71
2022/01/17 02:08:40;;;;;;;11.37;8.80;;;6.90;99.90;;;;;;5093895;28;20272;-68
2022/01/17 02:11:10;;;;;;;12.20;8.77;;;6.90;99.90;;;;;;5094537;28;20196;-69
2022/01/17 02:13:38;;;;;;;9.53;7.60;;;6.90;99.90;;;;;;5095406;28;20272;-70
2022/01/17 02:16:10;;;;;;;10.37;7.50;;;6.90;99.90;;;;;;5098214;28;20203;-71
2022/01/17 02:18:36;;;;;;;11.70;7.97;;;6.90;99.90;;;;;;5097470;28;21339;-71
2022/01/17 02:23:35;;;;;;;13.77;8.90;;;6.90;99.90;;;;;;5091653;28;20168;-70
2022/01/17 02:26:03;;;;;;;12.73;8.63;;;6.90;99.90;;;;;;5093106;28;20195;-71
2022/01/17 02:28:29;;;;;;;12.93;8.70;;;6.90;99.90;;;;;;5097751;28;20184;-70
2022/01/17 02:30:57;;;;;;;13.30;9.40;;;7.00;99.90;;;;;;5092202;28;20164;-70
2022/01/17 02:33:22;;;;;;;12.90;9.03;;;7.00;99.90;;;;;;5090799;28;20169;-69
2022/01/17 02:35:49;;;;;;;12.30;8.57;;;7.00;99.90;;;;;;5096218;28;20199;-70
2022/01/17 02:38:14;;;;;;;11.83;8.43;;;7.00;99.90;;;;;;5092223;28;20180;-69
2022/01/17 02:40:42;;;;;;;12.63;9.07;;;7.00;99.90;;;;;;5090108;28;20183;-70
2022/01/17 02:43:08;;;;;;;12.23;7.83;;;7.00;99.90;;;;;;5085171;28;20297;-71
2022/01/17 02:48:23;;;;;;;10.70;8.20;;;7.10;99.90;;;;;;5089542;28;20188;-67
2022/01/17 02:50:54;;;;;;;13.27;8.57;;;7.10;99.90;;;;;;5092415;28;20263;-69
2022/01/17 02:53:28;;;;;;;12.70;8.90;;;7.10;99.90;;;;;;5090414;28;20183;-71
2022/01/17 02:56:05;;;;;;;12.03;8.83;;;7.10;99.90;;;;;;5093572;28;20276;-71
2022/01/17 02:58:33;;;;;;;13.00;8.70;;;7.10;99.90;;;;;;5091783;28;20262;-70
2022/01/17 03:01:00;;;;;;;11.20;7.50;;;7.10;99.90;;;;;;5101934;28;20207;-70
2022/01/17 03:03:28;;;;;;;12.17;8.50;;;7.10;99.90;;;;;;5093036;28;20183;-70
2022/01/17 03:05:57;;;;;;;12.80;8.63;;;7.20;99.90;;;;;;5084246;28;20278;-70
2022/01/17 03:08:25;;;;;;;10.93;8.17;;;7.20;99.90;;;;;;5093460;28;20283;-70
2022/01/17 03:10:53;;;;;;;13.20;8.67;;;7.20;99.90;;;;;;5094536;28;20195;-71
2022/01/17 03:13:20;;;;;;;11.70;8.93;;;7.30;99.90;;;;;;5092576;28;20207;-71
2022/01/17 03:15:53;;;;;;;14.00;9.20;;;7.30;99.90;;;;;;5096045;28;20171;-70
2022/01/17 03:18:19;;;;;;;12.63;8.50;;;7.30;99.90;;;;;;5087966;28;20453;-70
2022/01/17 03:20:44;;;;;;;13.07;8.97;;;7.30;99.90;;;;;;5092708;28;20226;-70
2022/01/17 03:23:12;;;;;;;11.40;8.50;;;7.30;99.90;;;;;;5091762;28;20171;-67
2022/01/17 03:25:38;;;;;;;12.23;8.90;;;7.30;99.90;;;;;;5092976;28;20211;-68
2022/01/17 03:28:04;;;;;;;12.67;9.30;;;7.40;99.90;;;;;;5093077;28;20245;-70
2022/01/17 03:30:33;;;;;;;11.80;8.50;;;7.40;99.90;;;;;;5096436;28;20192;-71
2022/01/17 03:33:06;;;;;;;13.73;9.57;;;7.40;99.90;;;;;;5109133;27;20233;-70
2022/01/17 03:35:38;;;;;;;14.07;9.80;;;7.40;99.90;;;;;;5089577;28;20177;-68
2022/01/17 03:38:07;;;;;;;12.90;9.43;;;7.40;99.90;;;;;;5114156;27;20214;-69
2022/01/17 03:40:36;;;;;;;13.53;9.10;;;7.40;99.90;;;;;;5091710;28;20203;-70
2022/01/17 03:43:03;;;;;;;13.77;9.80;;;7.40;99.90;;;;;;5093427;28;20179;-71
2022/01/17 03:45:29;;;;;;;12.63;9.50;;;7.40;99.90;;;;;;5087352;28;20209;-69
2022/01/17 03:47:58;;;;;;;12.80;8.97;;;7.30;99.90;;;;;;5094217;28;20339;-70
2022/01/17 03:50:26;;;;;;;15.70;10.77;;;7.30;99.90;;;;;;5096369;28;20199;-70
2022/01/17 03:52:54;;;;;;;14.57;9.27;;;7.40;99.90;;;;;;5098133;28;20276;-68
2022/01/17 03:55:28;;;;;;;15.43;10.47;;;7.30;99.90;;;;;;5110173;28;20199;-70
2022/01/17 03:57:54;;;;;;;13.17;9.83;;;7.30;99.90;;;;;;5083794;28;20207;-70
2022/01/17 04:00:20;;;;;;;14.07;10.03;;;7.30;99.90;;;;;;5096857;28;20211;-70
2022/01/17 04:02:46;;;;;;;12.70;9.50;;;7.30;99.90;;;;;;5093642;28;20227;-68
2022/01/17 04:05:17;;;;;;;14.03;9.87;;;7.30;99.90;;;;;;5101762;28;20186;-70
2022/01/17 04:07:43;;;;;;;13.57;9.13;;;7.30;99.90;;;;;;5103887;28;20177;-70
2022/01/17 04:10:13;;;;;;;13.67;9.50;;;7.30;99.90;;;;;;5092408;28;20207;-70
2022/01/17 04:12:42;;;;;;;15.00;9.73;;;7.30;99.90;;;;;;5098087;28;20175;-70
2022/01/17 04:15:08;;;;;;;12.37;9.10;;;7.30;99.90;;;;;;5113350;28;20179;-68
2022/01/17 04:17:39;;;;;;;14.17;10.10;;;7.30;99.90;;;;;;5118972;27;20172;-70
2022/01/17 04:20:09;;;;;;;12.40;8.70;;;7.40;99.90;;;;;;5096637;28;20184;-70
2022/01/17 04:22:40;;;;;;;12.33;8.80;;;7.40;99.90;;;;;;5103469;28;20206;-69
2022/01/17 04:25:07;;;;;;;12.23;9.50;;;7.40;99.90;;;;;;5106827;28;20177;-69
2022/01/17 04:27:33;;;;;;;13.20;9.20;;;7.40;99.90;;;;;;5093871;28;20274;-71
2022/01/17 04:30:00;;;;;;;13.33;9.07;;;7.40;99.90;;;;;;5093853;28;20193;-66
2022/01/17 04:32:26;;;;;;;12.30;8.80;;;7.40;99.90;;;;;;5096031;28;20179;-71
2022/01/17 04:34:53;;;;;;;11.47;8.30;;;7.40;99.90;;;;;;5092147;28;20248;-71
2022/01/17 04:37:19;;;;;;;13.37;9.80;;;7.40;99.90;;;;;;5096661;28;20184;-71
2022/01/17 04:39:45;;;;;;;15.40;10.70;;;7.50;99.90;;;;;;5098428;28;20194;-70
2022/01/17 04:42:13;;;;;;;14.37;10.23;;;7.50;99.90;;;;;;5100261;28;20282;-71
2022/01/17 04:47:31;;;;;;;15.10;9.63;;;7.40;99.90;;;;;;5094929;28;20332;-70
2022/01/17 04:49:57;;;;;;;18.73;10.73;;;7.40;99.90;;;;;;5114251;27;20196;-70
2022/01/17 04:52:23;;;;;;;15.93;9.47;;;7.40;99.90;;;;;;5098829;28;20179;-75
2022/01/17 04:54:53;;;;;;;15.60;9.60;;;7.40;99.90;;;;;;5107437;28;20210;-72
2022/01/17 04:57:21;;;;;;;13.10;9.10;;;7.40;99.90;;;;;;5099551;28;20192;-70
2022/01/17 04:59:51;;;;;;;14.17;9.20;;;7.40;99.90;;;;;;5099979;28;21937;-71
2022/01/17 05:02:17;;;;;;;16.50;10.13;;;7.40;99.90;;;;;;5098973;28;20257;-72
2022/01/17 05:04:45;;;;;;;16.47;9.73;;;7.40;99.90;;;;;;5093081;28;20180;-69
2022/01/17 05:07:12;;;;;;;15.23;10.67;;;7.40;99.90;;;;;;5106101;27;20441;-72
2022/01/17 05:09:41;;;;;;;14.67;9.80;;;7.40;99.90;;;;;;5100450;28;20195;-72
2022/01/17 05:12:08;;;;;;;15.10;10.47;;;7.40;99.90;;;;;;5107084;28;20191;-70
2022/01/17 05:14:34;;;;;;;15.87;10.40;;;7.30;99.90;;;;;;5097699;28;20384;-72
2022/01/17 05:17:20;;;;;;;14.87;10.23;;;7.30;99.90;;;;;;5094627;28;20186;-72
2022/01/17 05:19:49;;;;;;;16.70;10.43;;;7.30;99.90;;;;;;5098972;28;20187;-72
2022/01/17 05:22:20;;;;;;;16.70;10.67;;;7.30;99.90;;;;;;5097086;28;20184;-72
2022/01/17 05:24:49;;;;;;;15.93;11.23;;;7.30;99.90;;;;;;5096250;28;20186;-71
2022/01/17 05:27:17;;;;;;;16.77;10.17;;;7.30;99.90;;;;;;5081944;28;20196;-72
2022/01/17 05:29:43;;;;;;;18.30;11.10;;;7.30;99.90;;;;;;5090822;28;20295;-71
2022/01/17 05:32:08;;;;;;;16.70;11.57;;;7.30;99.90;;;;;;5095376;28;20255;-72
2022/01/17 05:34:40;;;;;;;16.57;11.07;;;7.30;99.90;;;;;;5095190;28;20198;-68
2022/01/17 05:37:10;;;;;;;15.53;9.97;;;7.30;99.90;;;;;;5078089;28;20200;-70
2022/01/17 05:39:42;;;;;;;15.37;9.93;;;7.30;99.90;;;;;;5098074;28;20198;-72
2022/01/17 05:42:09;;;;;;;14.93;10.03;;;7.30;99.90;;;;;;5098102;28;20249;-72
2022/01/17 05:44:38;;;;;;;14.67;9.53;;;7.30;99.90;;;;;;5095517;28;20187;-72
2022/01/17 05:47:06;;;;;;;16.77;10.07;;;7.30;99.90;;;;;;5107595;28;20266;-72
2022/01/17 05:49:31;;;;;;;16.10;10.13;;;7.30;99.90;;;;;;5095499;28;20264;-72
2022/01/17 05:52:02;;;;;;;14.73;9.73;;;7.30;99.90;;;;;;5095071;28;20209;-71
2022/01/17 05:54:27;;;;;;;13.47;9.53;;;7.30;99.90;;;;;;5096621;28;20164;-72
2022/01/17 05:56:53;;;;;;;15.07;10.20;;;7.30;99.90;;;;;;5092151;28;20231;-71
2022/01/17 05:59:18;;;;;;;15.23;9.70;;;7.30;99.90;;;;;;5095028;28;20172;-71
2022/01/17 06:01:44;;;;;;;14.53;9.87;;;7.30;99.90;;;;;;5095121;28;20184;-73
2022/01/17 06:04:10;;;;;;;15.03;9.57;;;7.30;99.90;;;;;;5093564;28;20267;-69
2022/01/17 06:06:38;;;;;;;14.13;9.43;;;7.30;99.90;;;;;;5095187;28;20198;-71
2022/01/17 06:09:06;;;;;;;13.93;8.67;;;7.30;99.90;;;;;;5094569;28;20211;-71
2022/01/17 06:11:34;;;;;;;13.10;9.13;;;7.30;99.90;;;;;;5093784;28;20187;-71
2022/01/17 06:14:00;;;;;;;14.87;9.13;;;7.30;99.90;;;;;;5094269;28;20196;-72
2022/01/17 06:16:26;;;;;;;15.17;10.00;;;7.30;99.90;;;;;;5094182;28;20225;-72
2022/01/17 06:18:52;;;;;;;14.53;8.87;;;7.30;99.90;;;;;;5093972;28;20275;-72
2022/01/17 06:21:18;;;;;;;14.40;8.93;;;7.30;99.90;;;;;;5094378;28;20276;-73
2022/01/17 06:23:46;;;;;;;13.47;9.63;;;7.30;99.90;;;;;;5090320;28;20291;-72
2022/01/17 06:26:14;;;;;;;14.87;9.57;;;7.30;99.90;;;;;;5091349;28;20260;-72
2022/01/17 06:28:39;;;;;;;13.90;9.57;;;7.30;99.90;;;;;;5097568;28;20199;-68
2022/01/17 06:31:05;;;;;;;14.77;9.60;;;7.40;99.90;;;;;;5095214;28;20225;-71
2022/01/17 06:33:31;;;;;;;16.87;10.30;;;7.30;99.90;;;;;;5094586;28;20192;-70
2022/01/17 06:35:59;;;;;;;13.90;9.63;;;7.40;99.90;;;;;;5091235;28;20452;-72
2022/01/17 06:38:27;;;;;;;15.93;9.67;;;7.40;99.90;;;;;;5097269;28;20561;-72
2022/01/17 06:40:52;;;;;;;12.10;8.47;;;7.30;99.90;;;;;;5094187;28;20222;-68
2022/01/17 06:43:18;;;;;;;11.53;8.50;;;7.30;99.90;;;;;;5098054;27;20176;-72
2022/01/17 06:45:48;;;;;;;13.30;8.27;;;7.30;99.90;;;;;;5089479;28;20221;-71
2022/01/17 06:48:16;;;;;;;14.33;9.33;;;7.30;99.90;;;;;;5095262;28;20226;-70
2022/01/17 06:50:44;;;;;;;13.30;9.17;;;7.30;99.90;;;;;;5092007;28;20176;-72
2022/01/17 06:53:10;;;;;;;13.27;8.47;;;7.40;99.90;;;;;;5092140;28;20372;-71
2022/01/17 06:55:37;;;;;;;14.80;9.37;;;7.40;99.90;;;;;;5090465;28;20207;-71
2022/01/17 06:58:03;;;;;;;13.60;9.07;;;7.30;99.90;;;;;;5094531;28;20168;-73
2022/01/17 07:00:33;;;;;;;14.03;9.73;;;7.30;99.90;;;;;;5094102;28;20211;-72
2022/01/17 07:03:01;;;;;;;15.20;9.60;;;7.30;99.90;;;;;;5093556;28;20186;-73
2022/01/17 07:05:29;;;;;;;13.53;8.70;;;7.30;99.90;;;;;;5091170;28;20184;-72
2022/01/17 07:08:00;;;;;;;15.07;9.60;;;7.40;99.90;;;;;;5092256;28;20188;-72
2022/01/17 07:10:28;;;;;;;17.63;10.23;;;7.40;99.90;;;;;;5091435;28;20249;-73
2022/01/17 07:12:59;;;;;;;15.43;9.53;;;7.40;99.90;;;;;;5095095;28;20176;-72
2022/01/17 07:15:25;;;;;;;14.80;9.43;;;7.30;99.90;;;;;;5090714;28;20168;-72
2022/01/17 07:17:50;;;;;;;13.63;8.83;;;7.40;99.90;;;;;;5093052;28;20183;-72
2022/01/17 07:20:16;;;;;;;11.87;8.60;;;7.40;99.90;;;;;;5093331;28;20318;-73
2022/01/17 07:22:42;;;;;;;12.00;8.17;;;7.40;99.90;;;;;;5091672;28;20177;-69
2022/01/17 07:25:08;;;;;;;11.63;8.57;;;7.40;99.90;;;;;;5092985;28;20184;-72
2022/01/17 07:27:35;;;;;;;10.73;7.97;;;7.40;99.90;;;;;;5093020;28;20324;-72
2022/01/17 07:30:05;;;;;;;12.13;7.87;;;7.40;99.90;;;;;;5090623;28;20229;-72
2022/01/17 07:32:34;;;;;;;14.37;8.80;;;7.40;99.90;;;;;;5090480;28;20191;-71
2022/01/17 07:35:02;;;;;;;17.30;9.17;;;7.40;99.90;;;;;;5091675;28;20188;-72
2022/01/17 07:37:28;;;;;;;13.87;9.40;;;7.40;99.90;;;;;;5093416;28;20233;-70
2022/01/17 07:39:55;;;;;;;13.67;9.37;;;7.40;99.90;;;;;;5088994;28;20184;-69
2022/01/17 07:42:21;;;;;;;12.77;8.73;;;7.40;99.90;;;;;;5093025;28;20200;-72
2022/01/17 07:44:53;;;;;;;11.20;8.03;;;7.40;99.90;;;;;;5094340;28;20206;-71
2022/01/17 07:47:27;;;;;;;14.83;8.67;;;7.50;99.90;;;;;;5092426;28;20171;-72
2022/01/17 07:49:52;;;;;;;13.50;8.40;;;7.50;99.90;;;;;;5092285;28;20210;-71
2022/01/17 07:52:20;;;;;;;12.60;7.93;;;7.50;99.90;;;;;;5094483;28;20164;-72
2022/01/17 07:54:49;;;;;;;12.43;8.20;;;7.50;99.90;;;;;;5097338;28;20237;-72
2022/01/17 07:57:15;;;;;;;12.43;7.97;;;7.50;99.90;;;;;;5101648;28;20214;-70
2022/01/17 07:59:43;;;;;;;13.20;8.10;;;7.50;99.90;;;;;;5095115;28;20219;-73
2022/01/17 08:02:11;;;;;;;12.27;8.20;;;7.50;99.90;;;;;;5093733;28;20214;-72
2022/01/17 08:04:37;;;;;;;10.63;7.20;;;7.50;99.90;;;;;;5109218;28;20180;-72
2022/01/17 08:07:07;;;;;;;12.60;7.97;;;7.50;99.90;;;;;;5090127;28;20217;-68
2022/01/17 08:09:35;;;;;;;10.63;7.60;;;7.50;99.90;;;;;;5095324;28;20208;-72
2022/01/17 08:12:04;;;;;;;11.13;7.47;;;7.60;99.90;;;;;;5093223;28;20184;-71
2022/01/17 08:14:35;;;;;;;10.80;7.23;;;7.60;99.90;;;;;;5093054;28;20180;-73
2022/01/17 08:17:01;;;;;;;9.53;6.50;;;7.60;99.90;;;;;;5091064;28;20207;-73
2022/01/17 08:19:29;;;;;;;10.37;6.60;;;7.60;99.90;;;;;;5099062;28;20213;-70
2022/01/17 08:21:56;;;;;;;10.27;6.37;;;7.70;99.90;;;;;;5092606;28;20327;-69
2022/01/17 08:24:22;;;;;;;12.27;7.07;;;7.70;99.90;;;;;;5092628;28;20187;-72
2022/01/17 08:26:50;;;;;;;10.43;7.20;;;7.70;99.90;;;;;;5092665;28;20207;-71
2022/01/17 08:29:16;;;;;;;10.40;7.03;;;7.70;99.90;;;;;;5092695;28;20200;-69
2022/01/17 08:31:46;;;;;;;10.53;6.43;;;7.80;99.90;;;;;;5093859;28;20192;-73
2022/01/17 08:34:12;;;;;;;9.77;6.50;;;7.80;99.90;;;;;;5100352;28;20177;-73
2022/01/17 08:36:42;;;;;;;11.63;6.57;;;7.80;99.90;;;;;;5089718;28;20204;-75
2022/01/17 08:39:09;;;;;;;9.87;6.20;;;7.80;99.90;;;;;;5092541;28;20212;-75
2022/01/17 08:41:35;;;;;;;10.90;6.63;;;7.90;99.90;;;;;;5093092;28;20213;-73
2022/01/17 08:44:01;;;;;;;10.17;6.43;;;7.90;99.90;;;;;;5103319;28;20183;-72
2022/01/17 08:46:29;;;;;;;12.73;7.33;;;7.90;99.90;;;;;;5092722;28;20192;-74
2022/01/17 08:48:56;;;;;;;11.03;6.77;;;7.90;99.90;;;;;;5092727;28;20470;-74
2022/01/17 08:51:27;;;;;;;9.20;6.23;;;7.90;99.90;;;;;;5092543;28;20176;-72
2022/01/17 08:53:52;;;;;;;10.27;7.13;;;8.00;99.90;;;;;;5085079;28;20389;-70
2022/01/17 08:56:20;;;;;;;8.83;6.30;;;8.00;99.90;;;;;;5094541;28;20425;-73
2022/01/17 08:58:53;;;;;;;10.50;6.13;;;8.00;99.90;;;;;;5092586;28;20195;-75
2022/01/17 09:01:19;;;;;;;10.03;6.47;;;8.00;99.90;;;;;;5090948;28;20176;-74
2022/01/17 09:03:45;;;;;;;9.73;6.40;;;8.10;99.90;;;;;;5089825;28;20332;-73
2022/01/17 09:06:12;;;;;;;7.03;5.03;;;8.10;99.90;;;;;;5095929;28;20232;-70
2022/01/17 09:08:38;;;;;;;10.80;6.90;;;8.10;99.90;;;;;;5095909;28;20207;-75
2022/01/17 09:11:06;;;;;;;9.47;6.47;;;8.10;99.90;;;;;;5094716;28;20338;-74
2022/01/17 09:13:35;;;;;;;9.83;6.73;;;8.10;99.90;;;;;;5096963;28;20352;-74
2022/01/17 09:16:00;;;;;;;10.37;6.40;;;8.20;99.90;;;;;;5098481;28;20182;-74
2022/01/17 09:18:26;;;;;;;9.17;6.53;;;8.20;99.90;;;;;;5096303;28;20176;-74
2022/01/17 09:20:54;;;;;;;8.87;6.30;;;8.20;99.90;;;;;;5091425;28;20188;-71
2022/01/17 09:23:21;;;;;;;9.40;6.43;;;8.20;99.90;;;;;;5086933;28;20282;-74
2022/01/17 09:25:47;;;;;;;12.77;8.57;;;8.30;99.90;;;;;;5096616;28;20272;-75
2022/01/17 09:28:13;;;;;;;14.57;9.13;;;8.30;99.90;;;;;;5093864;28;20200;-73
2022/01/17 09:30:41;;;;;;;12.73;8.93;;;8.30;99.90;;;;;;5093499;28;20183;-74
2022/01/17 09:33:07;;;;;;;16.70;11.03;;;8.30;99.90;;;;;;5100423;28;20245;-73
2022/01/17 09:35:38;;;;;;;14.37;9.90;;;8.40;99.90;;;;;;5094926;28;20257;-74
2022/01/17 09:38:06;;;;;;;17.77;10.97;;;8.40;99.90;;;;;;5082291;28;20201;-74
2022/01/17 09:40:33;;;;;;;15.53;10.57;;;8.40;99.90;;;;;;5090214;28;20176;-71
2022/01/17 09:43:04;;;;;;;15.53;10.37;;;8.40;99.90;;;;;;5101146;28;20232;-73
2022/01/17 09:45:34;;;;;;;16.37;9.87;;;8.40;99.90;;;;;;5094150;28;20247;-74
2022/01/17 09:48:05;;;;;;;17.87;11.73;;;8.40;99.90;;;;;;5095354;28;20176;-74
2022/01/17 09:50:45;;;;;;;17.83;12.37;;;8.40;99.90;;;;;;5093797;28;20238;-72
2022/01/17 09:53:17;;;;;;;17.57;11.37;;;8.40;99.90;;;;;;5096873;28;20441;-73
2022/01/17 09:55:43;;;;;;;19.80;11.67;;;8.50;99.90;;;;;;5099330;28;20188;-75
2022/01/17 09:58:13;;;;;;;20.17;13.17;;;8.50;99.90;;;;;;5095232;28;20180;-74
2022/01/17 10:00:41;;;;;;;22.77;13.07;;;8.50;99.90;;;;;;5095105;28;20232;-74
2022/01/17 10:03:13;;;;;;;23.40;14.50;;;8.60;99.90;;;;;;5097283;28;20175;-75
2022/01/17 10:05:42;;;;;;;22.13;14.13;;;8.70;99.90;;;;;;5092389;28;20187;-73
2022/01/17 10:08:15;;;;;;;21.23;13.57;;;8.70;99.90;;;;;;5096172;28;20187;-74
2022/01/17 10:10:50;;;;;;;21.30;13.67;;;8.70;99.90;;;;;;5095980;28;20233;-75
2022/01/17 10:13:27;;;;;;;20.30;12.70;;;8.70;99.90;;;;;;5089512;28;20230;-75
2022/01/17 10:16:05;;;;;;;18.03;12.23;;;8.80;99.90;;;;;;5083129;28;20244;-74
2022/01/17 10:18:54;;;;;;;20.23;13.57;;;8.90;99.90;;;;;;5094549;28;20211;-74
2022/01/17 10:21:36;;;;;;;21.70;13.87;;;9.00;99.90;;;;;;5094390;28;20172;-75
2022/01/17 10:37:23;;;;;;;18.73;12.90;;;9.00;99.90;;;;;;5092284;28;20237;-75
2022/01/17 10:40:00;;;;;;;17.80;12.10;;;9.00;99.90;;;;;;5088138;28;20230;-70
2022/01/17 10:42:48;;;;;;;19.83;11.97;;;9.00;99.90;;;;;;5090760;28;20175;-74
2022/01/17 10:45:22;;;;;;;20.00;12.17;;;9.00;99.90;;;;;;5092552;28;20192;-70
2022/01/17 10:47:55;;;;;;;18.13;12.17;;;8.90;99.90;;;;;;5085966;28;20189;-73
2022/01/17 10:50:45;;;;;;;20.47;12.33;;;8.90;99.90;;;;;;5093714;28;20188;-71
2022/01/17 10:53:13;;;;;;;17.33;12.10;;;8.90;99.90;;;;;;5093898;28;20182;-73
2022/01/17 10:55:42;;;;;;;20.63;13.73;;;8.80;99.90;;;;;;5094127;28;20204;-74
2022/01/17 10:58:16;;;;;;;20.07;12.87;;;8.80;99.90;;;;;;5095334;28;20183;-74
2022/01/17 11:00:49;;;;;;;20.17;13.97;;;8.80;99.90;;;;;;5094241;28;20231;-72
2022/01/17 11:03:21;;;;;;;19.77;12.40;;;8.80;99.90;;;;;;5108422;28;20207;-73
2022/01/17 11:05:52;;;;;;;19.20;12.33;;;8.70;99.90;;;;;;5098896;28;20262;-73
2022/01/17 11:08:20;;;;;;;17.67;12.00;;;8.80;99.90;;;;;;5094123;28;20203;-74
2022/01/17 11:10:50;;;;;;;18.33;11.93;;;8.80;99.90;;;;;;5094238;28;20200;-74
2022/01/17 11:13:18;;;;;;;19.53;12.57;;;8.80;99.90;;;;;;5094042;28;20156;-74
2022/01/17 11:15:46;;;;;;;22.27;13.97;;;8.90;99.90;;;;;;5094324;28;20192;-74
2022/01/17 11:18:22;;;;;;;19.70;13.33;;;9.00;99.90;;;;;;5095070;28;20196;-74
2022/01/17 11:20:53;;;;;;;22.37;15.07;;;9.20;99.90;;;;;;5094177;28;20176;-75
2022/01/17 11:23:25;;;;;;;19.60;13.63;;;9.30;99.90;;;;;;5090594;28;20180;-73
2022/01/17 11:25:55;;;;;;;19.33;11.97;;;9.40;99.90;;;;;;5096198;28;20277;-71
2022/01/17 11:28:29;;;;;;;16.43;11.73;;;9.40;99.90;;;;;;5101296;28;20221;-73
2022/01/17 11:31:00;;;;;;;21.00;12.37;;;9.50;99.90;;;;;;5081480;28;20175;-72
2022/01/17 11:33:29;;;;;;;16.53;11.40;;;9.40;99.90;;;;;;5093458;28;20196;-74
2022/01/17 11:35:56;;;;;;;20.17;12.63;;;9.50;99.90;;;;;;5086252;28;20187;-72
2022/01/17 11:38:35;;;;;;;19.67;13.30;;;9.50;99.90;;;;;;5083506;28;20180;-74
2022/01/17 11:41:02;;;;;;;17.00;11.33;;;9.50;99.90;;;;;;5093615;28;20466;-74
2022/01/17 11:43:37;;;;;;;17.07;12.37;;;9.40;99.90;;;;;;5092421;28;20171;-72
2022/01/17 11:46:17;;;;;;;17.60;12.93;;;9.40;99.90;;;;;;5093991;28;20181;-73
2022/01/17 11:49:12;;;;;;;17.60;12.10;;;9.40;99.90;;;;;;5092610;28;20218;-73
2022/01/17 11:51:45;;;;;;;17.60;11.53;;;9.30;99.90;;;;;;5080061;28;20275;-73
2022/01/17 11:54:16;;;;;;;18.30;11.30;;;9.30;99.90;;;;;;5091976;28;20200;-74
2022/01/17 11:56:41;;;;;;;19.70;12.43;;;9.20;99.90;;;;;;5093351;28;20183;-73
2022/01/17 11:59:41;;;;;;;22.37;12.70;;;9.20;99.90;;;;;;5099226;28;20179;-72
2022/01/17 12:02:15;;;;;;;17.07;11.37;;;9.20;99.90;;;;;;5092311;28;20180;-72
2022/01/17 12:04:41;;;;;;;18.23;11.70;;;9.10;99.90;;;;;;5086923;28;20472;-69
2022/01/17 12:07:11;;;;;;;16.07;10.70;;;9.10;99.90;;;;;;5089737;28;20176;-73
2022/01/17 12:09:44;;;;;;;16.07;10.50;;;9.00;99.90;;;;;;5091154;28;20204;-73
2022/01/17 12:12:09;;;;;;;16.13;10.63;;;8.90;99.90;;;;;;5085074;28;20200;-73
2022/01/17 12:14:53;;;;;;;15.93;10.83;;;8.90;99.90;;;;;;5090765;28;20221;-72
2022/01/17 12:17:19;;;;;;;19.40;11.47;;;8.90;99.90;;;;;;5092558;28;20168;-73
2022/01/17 12:20:06;;;;;;;18.37;12.67;;;8.80;99.90;;;;;;5093983;28;20218;-72
2022/01/17 12:22:40;;;;;;;23.20;13.47;;;8.80;99.90;;;;;;5092760;28;20221;-71
2022/01/17 12:25:25;;;;;;;19.70;12.90;;;8.70;99.90;;;;;;5079777;28;20188;-73
2022/01/17 12:28:19;;;;;;;17.47;12.80;;;8.70;99.90;;;;;;5093809;28;20261;-72
2022/01/17 12:30:59;;;;;;;17.37;12.03;;;8.60;99.90;;;;;;5079853;28;20195;-70
2022/01/17 12:33:28;;;;;;;18.57;12.30;;;8.60;99.90;;;;;;5091469;28;20214;-73
2022/01/17 12:36:00;;;;;;;17.37;12.27;;;8.60;99.90;;;;;;5093520;28;20200;-71
2022/01/17 12:38:43;;;;;;;17.47;11.07;;;8.50;99.90;;;;;;5096012;28;20391;-73
2022/01/17 12:41:35;;;;;;;20.23;12.47;;;8.50;99.90;;;;;;5083212;28;20202;-69
2022/01/17 12:44:14;;;;;;;18.57;12.50;;;8.50;99.90;;;;;;5104745;28;20175;-68
2022/01/17 12:46:43;;;;;;;15.90;10.47;;;8.50;99.90;;;;;;5080721;28;20222;-73
2022/01/17 12:49:09;;;;;;;16.93;10.83;;;8.50;99.90;;;;;;5111952;27;20469;-66
2022/01/17 12:51:38;;;;;;;15.43;10.60;;;8.50;99.90;;;;;;5113621;28;20179;-74
2022/01/17 12:54:11;;;;;;;15.47;10.03;;;8.40;99.90;;;;;;5094480;28;20240;-72
2022/01/17 12:56:41;;;;;;;15.30;10.57;;;8.40;99.90;;;;;;5091576;28;20175;-73
2022/01/17 12:59:09;;;;;;;14.67;9.73;;;8.40;99.90;;;;;;5095981;28;20194;-74
2022/01/17 13:01:35;;;;;;;16.03;11.53;;;8.40;99.90;;;;;;5087369;28;20191;-74
2022/01/17 13:04:04;;;;;;;19.83;11.83;;;8.40;99.90;;;;;;5096405;28;20176;-73
2022/01/17 13:06:32;;;;;;;17.17;11.60;;;8.40;99.90;;;;;;5096305;28;20194;-73
2022/01/17 13:09:01;;;;;;;16.33;10.97;;;8.40;99.90;;;;;;5095667;28;20214;-73
2022/01/17 13:11:29;;;;;;;17.53;10.97;;;8.40;99.90;;;;;;5096799;28;20267;-71
2022/01/17 13:14:01;;;;;;;17.40;11.33;;;8.40;99.90;;;;;;5096402;28;20168;-72
2022/01/17 13:16:31;;;;;;;17.53;11.30;;;8.40;99.90;;;;;;5094260;28;20271;-73
2022/01/17 13:19:00;;;;;;;15.27;10.70;;;8.40;99.90;;;;;;5098419;28;20287;-73
2022/01/17 13:21:26;;;;;;;16.17;11.43;;;8.40;99.90;;;;;;5093027;28;20180;-71
2022/01/17 13:24:14;;;;;;;15.87;10.80;;;8.40;99.90;;;;;;5095751;28;20176;-73
2022/01/17 13:26:56;;;;;;;17.77;11.13;;;8.40;99.90;;;;;;5094830;28;20215;-66
2022/01/17 13:29:25;;;;;;;19.50;11.80;;;8.50;99.90;;;;;;5095072;28;20234;-73